JBU374 KSYR-KBOS
Flight info
| Callsign | JBU374 |
|---|---|
| Flight time | 0h 46m |
| Altitude | 31000 |
| Route | LAMMS PONCT JFUND2 |
| Aircraft | A320/M-SDE3FGHIRWY/LB1 |
Departure
| Time | 2026-05-01 10:26 |
|---|---|
| Airport | Syracuse Hancock International Airport (KSYR) |
Arrival
| Time | 2026-05-01 11:12 |
|---|---|
| Airport | Boston Logan International Airport (KBOS) |
| Time | Latitude | Longitude | Altitude | Speed | Heading |
|---|---|---|---|---|---|
| 2026-05-01 09:56 | 43.11249 | -76.11065 | 424 ft | 0 kts | 357° |
| 2026-05-01 10:12 | 43.11212 | -76.11070 | 421 ft | 4 kts | 24° |
| 2026-05-01 10:13 | 43.11190 | -76.11090 | 412 ft | 4 kts | 47° |
| 2026-05-01 10:13 | 43.11177 | -76.11111 | 418 ft | 0 kts | 48° |
| 2026-05-01 10:15 | 43.11182 | -76.11088 | 422 ft | 7 kts | 72° |
| 2026-05-01 10:16 | 43.11198 | -76.10986 | 424 ft | 13 kts | 81° |
| 2026-05-01 10:16 | 43.11201 | -76.10848 | 424 ft | 16 kts | 88° |
| 2026-05-01 10:16 | 43.11138 | -76.10724 | 418 ft | 1 kts | 177° |
| 2026-05-01 10:17 | 43.11120 | -76.10723 | 420 ft | 4 kts | 177° |
| 2026-05-01 10:17 | 43.11037 | -76.10716 | 424 ft | 8 kts | 168° |
| 2026-05-01 10:17 | 43.11009 | -76.10637 | 425 ft | 13 kts | 88° |
| 2026-05-01 10:18 | 43.11014 | -76.10506 | 419 ft | 9 kts | 87° |
| 2026-05-01 10:18 | 43.11017 | -76.10406 | 418 ft | 12 kts | 88° |
| 2026-05-01 10:18 | 43.11020 | -76.10313 | 419 ft | 6 kts | 88° |
| 2026-05-01 10:19 | 43.11022 | -76.10246 | 421 ft | 4 kts | 88° |
| 2026-05-01 10:19 | 43.11022 | -76.10233 | 424 ft | 3 kts | 88° |
| 2026-05-01 10:19 | 43.11023 | -76.10196 | 424 ft | 5 kts | 88° |
| 2026-05-01 10:20 | 43.11029 | -76.10010 | 424 ft | 15 kts | 87° |
| 2026-05-01 10:20 | 43.11034 | -76.09850 | 424 ft | 18 kts | 87° |
| 2026-05-01 10:20 | 43.11040 | -76.09671 | 427 ft | 20 kts | 87° |
| 2026-05-01 10:20 | 43.11047 | -76.09468 | 425 ft | 23 kts | 87° |
| 2026-05-01 10:21 | 43.11041 | -76.09283 | 418 ft | 14 kts | 131° |
| 2026-05-01 10:21 | 43.11010 | -76.09268 | 419 ft | 0 kts | 176° |
| 2026-05-01 10:23 | 43.10985 | -76.09266 | 419 ft | 8 kts | 176° |
| 2026-05-01 10:23 | 43.10927 | -76.09314 | 419 ft | 0 kts | 268° |
| 2026-05-01 10:25 | 43.10918 | -76.09599 | 423 ft | 65 kts | 266° |
| 2026-05-01 10:25 | 43.10860 | -76.11380 | 433 ft | 152 kts | 267° |
| 2026-05-01 10:26 | 43.10819 | -76.12857 | 891 ft | 156 kts | 268° |
| 2026-05-01 10:26 | 43.10783 | -76.14334 | 1576 ft | 155 kts | 268° |
| 2026-05-01 10:26 | 43.09150 | -76.16871 | 2544 ft | 202 kts | 187° |
| 2026-05-01 10:27 | 43.06565 | -76.16332 | 3127 ft | 248 kts | 158° |
| 2026-05-01 10:27 | 43.04561 | -76.12379 | 4519 ft | 276 kts | 93° |
| 2026-05-01 10:28 | 43.04486 | -76.09743 | 5428 ft | 279 kts | 90° |
| 2026-05-01 10:28 | 43.04424 | -76.04348 | 7137 ft | 288 kts | 90° |
| 2026-05-01 10:28 | 43.04392 | -76.01623 | 7944 ft | 293 kts | 90° |
| 2026-05-01 10:29 | 43.04313 | -75.95971 | 9565 ft | 302 kts | 90° |
| 2026-05-01 10:29 | 43.04267 | -75.93064 | 10251 ft | 311 kts | 91° |
| 2026-05-01 10:30 | 43.04161 | -75.86706 | 10648 ft | 357 kts | 91° |
| 2026-05-01 10:30 | 43.04024 | -75.79735 | 11771 ft | 373 kts | 91° |
| 2026-05-01 10:31 | 43.03881 | -75.72567 | 13095 ft | 382 kts | 91° |
| 2026-05-01 10:31 | 43.03738 | -75.65217 | 14325 ft | 391 kts | 91° |
| 2026-05-01 10:32 | 43.03584 | -75.57709 | 15450 ft | 399 kts | 92° |
| 2026-05-01 10:32 | 43.03500 | -75.53896 | 16011 ft | 403 kts | 92° |
| 2026-05-01 10:32 | 43.03331 | -75.46155 | 17142 ft | 411 kts | 92° |
| 2026-05-01 10:33 | 43.03158 | -75.38300 | 18274 ft | 420 kts | 92° |
| 2026-05-01 10:33 | 43.02977 | -75.30234 | 19325 ft | 428 kts | 93° |
| 2026-05-01 10:34 | 43.02884 | -75.26153 | 19855 ft | 432 kts | 93° |
| 2026-05-01 10:34 | 43.02786 | -75.22029 | 20401 ft | 436 kts | 93° |
| 2026-05-01 10:34 | 43.02643 | -75.17873 | 20911 ft | 439 kts | 97° |
| 2026-05-01 10:35 | 43.01313 | -75.09702 | 21888 ft | 444 kts | 108° |
| 2026-05-01 10:35 | 43.00488 | -75.05614 | 22340 ft | 447 kts | 108° |
| 2026-05-01 10:35 | 42.99655 | -75.01509 | 22804 ft | 450 kts | 108° |
| 2026-05-01 10:35 | 42.98812 | -74.97368 | 23267 ft | 454 kts | 108° |
| 2026-05-01 10:36 | 42.97123 | -74.89053 | 24064 ft | 460 kts | 108° |
| 2026-05-01 10:36 | 42.96267 | -74.84839 | 24442 ft | 462 kts | 108° |
| 2026-05-01 10:36 | 42.95408 | -74.80605 | 24827 ft | 464 kts | 108° |
| 2026-05-01 10:37 | 42.94543 | -74.76348 | 25190 ft | 466 kts | 108° |
| 2026-05-01 10:37 | 42.92793 | -74.67779 | 25924 ft | 470 kts | 108° |
| 2026-05-01 10:37 | 42.91910 | -74.63469 | 26274 ft | 472 kts | 108° |
| 2026-05-01 10:38 | 42.91021 | -74.59152 | 26648 ft | 474 kts | 108° |
| 2026-05-01 10:38 | 42.90125 | -74.54809 | 27001 ft | 476 kts | 108° |
| 2026-05-01 10:38 | 42.89220 | -74.50442 | 27354 ft | 478 kts | 108° |
| 2026-05-01 10:38 | 42.88315 | -74.46065 | 27702 ft | 481 kts | 108° |
| 2026-05-01 10:39 | 42.87406 | -74.41673 | 28046 ft | 483 kts | 108° |
| 2026-05-01 10:39 | 42.86500 | -74.37307 | 28378 ft | 485 kts | 108° |
| 2026-05-01 10:39 | 42.85577 | -74.32879 | 28681 ft | 487 kts | 109° |
| 2026-05-01 10:39 | 42.84647 | -74.28441 | 29096 ft | 487 kts | 109° |
| 2026-05-01 10:40 | 42.83716 | -74.24010 | 29580 ft | 486 kts | 109° |
| 2026-05-01 10:40 | 42.82790 | -74.19590 | 30073 ft | 484 kts | 109° |
| 2026-05-01 10:40 | 42.81869 | -74.15181 | 30474 ft | 483 kts | 109° |
| 2026-05-01 10:40 | 42.80949 | -74.10785 | 30835 ft | 483 kts | 109° |
| 2026-05-01 10:41 | 42.80024 | -74.06388 | 30942 ft | 484 kts | 109° |
| 2026-05-01 10:41 | 42.79090 | -74.01979 | 30961 ft | 485 kts | 109° |
| 2026-05-01 10:42 | 42.76271 | -73.88764 | 30961 ft | 484 kts | 109° |
| 2026-05-01 10:42 | 42.74776 | -73.79834 | 30959 ft | 488 kts | 98° |
| 2026-05-01 10:43 | 42.74626 | -73.70576 | 30963 ft | 490 kts | 92° |
| 2026-05-01 10:43 | 42.74568 | -73.61293 | 30936 ft | 490 kts | 93° |
| 2026-05-01 10:44 | 42.74489 | -73.52095 | 30947 ft | 489 kts | 93° |
| 2026-05-01 10:44 | 42.74405 | -73.42826 | 30931 ft | 489 kts | 93° |
| 2026-05-01 10:45 | 42.74314 | -73.33569 | 30936 ft | 489 kts | 93° |
| 2026-05-01 10:45 | 42.74223 | -73.24303 | 30921 ft | 489 kts | 93° |
| 2026-05-01 10:46 | 42.74115 | -73.15041 | 30931 ft | 490 kts | 93° |
| 2026-05-01 10:46 | 42.73442 | -73.05876 | 30925 ft | 486 kts | 102° |
| 2026-05-01 10:47 | 42.72394 | -72.96803 | 30928 ft | 486 kts | 102° |
| 2026-05-01 10:47 | 42.71872 | -72.92331 | 30575 ft | 484 kts | 102° |
| 2026-05-01 10:47 | 42.71337 | -72.87773 | 29265 ft | 493 kts | 102° |
| 2026-05-01 10:47 | 42.70798 | -72.83192 | 28778 ft | 483 kts | 102° |
| 2026-05-01 10:48 | 42.70277 | -72.78711 | 28132 ft | 478 kts | 102° |
| 2026-05-01 10:48 | 42.69759 | -72.74270 | 27458 ft | 474 kts | 102° |
| 2026-05-01 10:48 | 42.69239 | -72.69853 | 26779 ft | 471 kts | 102° |
| 2026-05-01 10:48 | 42.68719 | -72.65461 | 26103 ft | 469 kts | 102° |
| 2026-05-01 10:49 | 42.68203 | -72.61104 | 25498 ft | 466 kts | 102° |
| 2026-05-01 10:49 | 42.67686 | -72.56783 | 24876 ft | 463 kts | 102° |
| 2026-05-01 10:49 | 42.67164 | -72.52475 | 24268 ft | 460 kts | 102° |
| 2026-05-01 10:49 | 42.66640 | -72.48192 | 23653 ft | 458 kts | 102° |
| 2026-05-01 10:50 | 42.66117 | -72.43931 | 22973 ft | 456 kts | 102° |
| 2026-05-01 10:50 | 42.65593 | -72.39702 | 22390 ft | 452 kts | 102° |
| 2026-05-01 10:50 | 42.65074 | -72.35524 | 22003 ft | 444 kts | 102° |
| 2026-05-01 10:50 | 42.64578 | -72.31490 | 21873 ft | 432 kts | 102° |
| 2026-05-01 10:51 | 42.64097 | -72.27500 | 21530 ft | 426 kts | 101° |
| 2026-05-01 10:51 | 42.63628 | -72.23508 | 20993 ft | 425 kts | 101° |
| 2026-05-01 10:51 | 42.63177 | -72.19578 | 20626 ft | 420 kts | 101° |
| 2026-05-01 10:51 | 42.62728 | -72.15672 | 20174 ft | 416 kts | 101° |
| 2026-05-01 10:52 | 42.62281 | -72.11798 | 19720 ft | 413 kts | 101° |
| 2026-05-01 10:52 | 42.61836 | -72.07948 | 19259 ft | 410 kts | 102° |
| 2026-05-01 10:52 | 42.61388 | -72.04130 | 18814 ft | 407 kts | 102° |
| 2026-05-01 10:52 | 42.60932 | -72.00346 | 18353 ft | 404 kts | 102° |
| 2026-05-01 10:53 | 42.60471 | -71.96600 | 17847 ft | 401 kts | 102° |
| 2026-05-01 10:53 | 42.60006 | -71.92879 | 17349 ft | 398 kts | 102° |
| 2026-05-01 10:53 | 42.59548 | -71.89246 | 16843 ft | 395 kts | 102° |
| 2026-05-01 10:53 | 42.59088 | -71.85592 | 16344 ft | 392 kts | 102° |
| 2026-05-01 10:54 | 42.58632 | -71.81963 | 15872 ft | 388 kts | 102° |
| 2026-05-01 10:54 | 42.58137 | -71.78374 | 15405 ft | 384 kts | 104° |
| 2026-05-01 10:54 | 42.57593 | -71.74846 | 14950 ft | 381 kts | 105° |
| 2026-05-01 10:54 | 42.57028 | -71.71369 | 14688 ft | 372 kts | 105° |
| 2026-05-01 10:55 | 42.56469 | -71.67984 | 14366 ft | 365 kts | 105° |
| 2026-05-01 10:55 | 42.55913 | -71.64636 | 13973 ft | 362 kts | 105° |
| 2026-05-01 10:55 | 42.55368 | -71.61317 | 13555 ft | 359 kts | 105° |
| 2026-05-01 10:55 | 42.54819 | -71.58021 | 13109 ft | 356 kts | 106° |
| 2026-05-01 10:56 | 42.54202 | -71.54785 | 12680 ft | 352 kts | 108° |
| 2026-05-01 10:56 | 42.53539 | -71.51601 | 12257 ft | 349 kts | 109° |
| 2026-05-01 10:56 | 42.52859 | -71.48450 | 11817 ft | 346 kts | 109° |
| 2026-05-01 10:56 | 42.52181 | -71.45330 | 11412 ft | 343 kts | 109° |
| 2026-05-01 10:57 | 42.51516 | -71.42238 | 11077 ft | 338 kts | 108° |
| 2026-05-01 10:57 | 42.50877 | -71.39226 | 10944 ft | 327 kts | 108° |
| 2026-05-01 10:57 | 42.50266 | -71.36321 | 10529 ft | 316 kts | 108° |
| 2026-05-01 10:57 | 42.49692 | -71.33515 | 9975 ft | 311 kts | 107° |
| 2026-05-01 10:58 | 42.49132 | -71.30698 | 9372 ft | 307 kts | 107° |
| 2026-05-01 10:58 | 42.48590 | -71.27949 | 9083 ft | 298 kts | 107° |
| 2026-05-01 10:58 | 42.48050 | -71.25214 | 8822 ft | 301 kts | 107° |
| 2026-05-01 10:58 | 42.47508 | -71.22487 | 8566 ft | 300 kts | 107° |
| 2026-05-01 10:59 | 42.46960 | -71.19757 | 8289 ft | 300 kts | 107° |
| 2026-05-01 10:59 | 42.46415 | -71.17042 | 8012 ft | 297 kts | 107° |
| 2026-05-01 10:59 | 42.46000 | -71.14310 | 7735 ft | 296 kts | 97° |
| 2026-05-01 10:59 | 42.45750 | -71.11540 | 7462 ft | 295 kts | 97° |
| 2026-05-01 11:00 | 42.45504 | -71.08793 | 7213 ft | 291 kts | 97° |
| 2026-05-01 11:00 | 42.45263 | -71.06113 | 7094 ft | 282 kts | 97° |
| 2026-05-01 11:00 | 42.44907 | -71.03547 | 6949 ft | 273 kts | 110° |
| 2026-05-01 11:00 | 42.44093 | -71.01292 | 6820 ft | 262 kts | 127° |
| 2026-05-01 11:01 | 42.42978 | -70.99384 | 6683 ft | 257 kts | 132° |
| 2026-05-01 11:01 | 42.41868 | -70.97531 | 6529 ft | 255 kts | 132° |
| 2026-05-01 11:01 | 42.40755 | -70.95663 | 6355 ft | 255 kts | 131° |
| 2026-05-01 11:01 | 42.39647 | -70.93797 | 6171 ft | 254 kts | 131° |
| 2026-05-01 11:02 | 42.38540 | -70.91929 | 5990 ft | 254 kts | 131° |
| 2026-05-01 11:02 | 42.37432 | -70.90071 | 5766 ft | 253 kts | 131° |
| 2026-05-01 11:02 | 42.36328 | -70.88221 | 5544 ft | 252 kts | 131° |
| 2026-05-01 11:02 | 42.35232 | -70.86388 | 5322 ft | 250 kts | 131° |
| 2026-05-01 11:03 | 42.34139 | -70.84563 | 5113 ft | 249 kts | 131° |
| 2026-05-01 11:03 | 42.32970 | -70.82850 | 4998 ft | 245 kts | 139° |
| 2026-05-01 11:03 | 42.31772 | -70.81257 | 4814 ft | 239 kts | 139° |
| 2026-05-01 11:03 | 42.30601 | -70.79692 | 4692 ft | 236 kts | 139° |
| 2026-05-01 11:04 | 42.29431 | -70.78135 | 4559 ft | 236 kts | 139° |
| 2026-05-01 11:04 | 42.28291 | -70.76627 | 4417 ft | 229 kts | 139° |
| 2026-05-01 11:04 | 42.27154 | -70.75164 | 4295 ft | 220 kts | 145° |
| 2026-05-01 11:04 | 42.25857 | -70.74288 | 4191 ft | 201 kts | 171° |
| 2026-05-01 11:05 | 42.24538 | -70.74237 | 4036 ft | 182 kts | 197° |
| 2026-05-01 11:05 | 42.23411 | -70.74794 | 3914 ft | 164 kts | 216° |
| 2026-05-01 11:05 | 42.22612 | -70.75746 | 3757 ft | 146 kts | 244° |
| 2026-05-01 11:05 | 42.22320 | -70.76975 | 3632 ft | 135 kts | 274° |
| 2026-05-01 11:06 | 42.22530 | -70.78179 | 3517 ft | 132 kts | 293° |
| 2026-05-01 11:06 | 42.22873 | -70.79333 | 3388 ft | 133 kts | 293° |
| 2026-05-01 11:06 | 42.23212 | -70.80495 | 3263 ft | 133 kts | 294° |
| 2026-05-01 11:07 | 42.23887 | -70.82802 | 3073 ft | 132 kts | 294° |
| 2026-05-01 11:07 | 42.24256 | -70.83924 | 3011 ft | 130 kts | 309° |
| 2026-05-01 11:07 | 42.24864 | -70.84827 | 2986 ft | 132 kts | 313° |
| 2026-05-01 11:07 | 42.25477 | -70.85725 | 2839 ft | 130 kts | 313° |
| 2026-05-01 11:08 | 42.26099 | -70.86597 | 2678 ft | 129 kts | 315° |
| 2026-05-01 11:08 | 42.26719 | -70.87444 | 2546 ft | 127 kts | 315° |
| 2026-05-01 11:08 | 42.27947 | -70.89098 | 2179 ft | 125 kts | 318° |
| 2026-05-01 11:09 | 42.28562 | -70.89923 | 2002 ft | 124 kts | 318° |
| 2026-05-01 11:09 | 42.29176 | -70.90745 | 1830 ft | 124 kts | 319° |
| 2026-05-01 11:09 | 42.29788 | -70.91563 | 1659 ft | 123 kts | 319° |
| 2026-05-01 11:10 | 42.31015 | -70.93203 | 1307 ft | 124 kts | 318° |
| 2026-05-01 11:10 | 42.31628 | -70.94023 | 1132 ft | 124 kts | 317° |
| 2026-05-01 11:10 | 42.32247 | -70.94850 | 957 ft | 125 kts | 316° |
| 2026-05-01 11:10 | 42.32869 | -70.95683 | 784 ft | 127 kts | 315° |
| 2026-05-01 11:11 | 42.33302 | -70.96262 | 671 ft | 131 kts | 315° |
| 2026-05-01 11:11 | 42.33941 | -70.97116 | 491 ft | 129 kts | 314° |
| 2026-05-01 11:11 | 42.34562 | -70.97950 | 310 ft | 130 kts | 314° |
| 2026-05-01 11:11 | 42.35194 | -70.98800 | 151 ft | 128 kts | 314° |
| 2026-05-01 11:12 | 42.35808 | -70.99622 | 28 ft | 114 kts | 314° |
| 2026-05-01 11:12 | 42.36261 | -71.00234 | 25 ft | 68 kts | 315° |
| 2026-05-01 11:12 | 42.36477 | -71.00517 | 30 ft | 19 kts | 315° |
| 2026-05-01 11:12 | 42.36549 | -71.00615 | 25 ft | 17 kts | 314° |
| 2026-05-01 11:13 | 42.36648 | -71.00751 | 29 ft | 22 kts | 314° |
| 2026-05-01 11:13 | 42.36618 | -71.00845 | 26 ft | 14 kts | 204° |
| 2026-05-01 11:13 | 42.36518 | -71.00894 | 28 ft | 17 kts | 204° |
| 2026-05-01 11:13 | 42.36508 | -71.01018 | 27 ft | 16 kts | 294° |
| 2026-05-01 11:14 | 42.36548 | -71.01147 | 29 ft | 12 kts | 291° |
| 2026-05-01 11:14 | 42.36567 | -71.01213 | 26 ft | 1 kts | 291° |
| 2026-05-01 11:14 | 42.36574 | -71.01235 | 29 ft | 4 kts | 291° |
| 2026-05-01 11:14 | 42.36580 | -71.01287 | 28 ft | 6 kts | 244° |
| 2026-05-01 11:15 | 42.36562 | -71.01305 | 26 ft | 0 kts | 203° |
| 2026-05-01 11:16 | 42.36561 | -71.01305 | 26 ft | 1 kts | 204° |
| 2026-05-01 11:16 | 42.36558 | -71.01345 | 28 ft | 6 kts | 297° |
| 2026-05-01 11:17 | 42.36564 | -71.01359 | 26 ft | 1 kts | 299° |
| 2026-05-01 11:17 | 42.36566 | -71.01365 | 26 ft | 1 kts | 298° |
| 2026-05-01 11:17 | 42.36567 | -71.01367 | 28 ft | 0 kts | 298° |
| 2026-05-01 11:17 | 42.36567 | -71.01368 | 28 ft | 0 kts | 298° |
| 2026-05-01 11:18 | 42.36568 | -71.01371 | 28 ft | 2 kts | 298° |
| 2026-05-01 11:18 | 42.36573 | -71.01382 | 27 ft | 0 kts | 298° |
| 2026-05-01 11:18 | 42.36574 | -71.01385 | 30 ft | 2 kts | 298° |
| 2026-05-01 11:18 | 42.36575 | -71.01387 | 30 ft | 0 kts | 298° |